sensor_id;sensor_type;location;lat;lon;timestamp;P1;durP1;ratioP1;P2;durP2;ratioP2
67049;SDS011;53955;52.442;13.284;2023-02-27T03:16:01;2.80;;;2.00;;
67049;SDS011;53955;52.442;13.284;2023-02-27T03:18:35;4.27;;;2.40;;
67049;SDS011;53955;52.442;13.284;2023-02-27T03:21:06;4.15;;;2.25;;
67049;SDS011;53955;52.442;13.284;2023-02-27T03:23:38;3.70;;;2.20;;
67049;SDS011;53955;52.442;13.284;2023-02-27T03:53:36;5.30;;;2.20;;
67049;SDS011;53955;52.442;13.284;2023-02-27T03:56:07;3.10;;;1.70;;
67049;SDS011;53955;52.442;13.284;2023-02-27T03:58:37;3.77;;;2.27;;
67049;SDS011;53955;52.442;13.284;2023-02-27T04:01:04;3.43;;;1.90;;
67049;SDS011;53955;52.442;13.284;2023-02-27T04:03:31;3.77;;;2.10;;
67049;SDS011;53955;52.442;13.284;2023-02-27T04:06:02;3.93;;;2.30;;
67049;SDS011;53955;52.442;13.284;2023-02-27T04:08:50;3.80;;;2.10;;
67049;SDS011;53955;52.442;13.284;2023-02-27T04:11:39;4.87;;;2.47;;
67049;SDS011;53955;52.442;13.284;2023-02-27T04:14:21;4.20;;;2.17;;
67049;SDS011;53955;52.442;13.284;2023-02-27T04:16:59;2.60;;;1.97;;
67049;SDS011;53955;52.442;13.284;2023-02-27T04:19:41;3.83;;;2.10;;
67049;SDS011;53955;52.442;13.284;2023-02-27T04:22:28;4.13;;;1.90;;
67049;SDS011;53955;52.442;13.284;2023-02-27T04:25:03;4.53;;;2.37;;
67049;SDS011;53955;52.442;13.284;2023-02-27T04:27:45;3.00;;;2.30;;
67049;SDS011;53955;52.442;13.284;2023-02-27T04:30:21;2.97;;;2.10;;
67049;SDS011;53955;52.442;13.284;2023-02-27T04:32:53;4.23;;;2.37;;
67049;SDS011;53955;52.442;13.284;2023-02-27T04:35:27;4.00;;;2.40;;
67049;SDS011;53955;52.442;13.284;2023-02-27T04:38:01;4.37;;;2.27;;
67049;SDS011;53955;52.442;13.284;2023-02-27T04:40:33;5.33;;;2.30;;
67049;SDS011;53955;52.442;13.284;2023-02-27T04:43:06;3.37;;;2.30;;
67049;SDS011;53955;52.442;13.284;2023-02-27T04:45:35;5.13;;;2.30;;
67049;SDS011;53955;52.442;13.284;2023-02-27T04:48:06;4.73;;;2.30;;
67049;SDS011;53955;52.442;13.284;2023-02-27T04:50:39;5.83;;;2.03;;
67049;SDS011;53955;52.442;13.284;2023-02-27T04:53:10;4.70;;;2.50;;
67049;SDS011;53955;52.442;13.284;2023-02-27T04:55:41;3.97;;;2.23;;
67049;SDS011;53955;52.442;13.284;2023-02-27T04:58:12;3.27;;;2.20;;
67049;SDS011;53955;52.442;13.284;2023-02-27T05:00:45;3.83;;;2.37;;
67049;SDS011;53955;52.442;13.284;2023-02-27T05:03:16;4.77;;;1.97;;
67049;SDS011;53955;52.442;13.284;2023-02-27T05:05:47;4.47;;;2.33;;
67049;SDS011;53955;52.442;13.284;2023-02-27T05:08:20;4.40;;;2.17;;
67049;SDS011;53955;52.442;13.284;2023-02-27T05:10:54;4.33;;;2.40;;
67049;SDS011;53955;52.442;13.284;2023-02-27T05:13:25;4.03;;;2.40;;
67049;SDS011;53955;52.442;13.284;2023-02-27T05:15:57;4.27;;;2.27;;
67049;SDS011;53955;52.442;13.284;2023-02-27T05:18:28;5.07;;;2.30;;
67049;SDS011;53955;52.442;13.284;2023-02-27T05:20:58;4.53;;;2.50;;
67049;SDS011;53955;52.442;13.284;2023-02-27T05:23:33;3.43;;;2.30;;
67049;SDS011;53955;52.442;13.284;2023-02-27T05:26:07;5.03;;;2.40;;
67049;SDS011;53955;52.442;13.284;2023-02-27T05:28:45;6.80;;;2.50;;
67049;SDS011;53955;52.442;13.284;2023-02-27T05:31:22;3.83;;;2.30;;
67049;SDS011;53955;52.442;13.284;2023-02-27T05:33:55;3.30;;;2.00;;
67049;SDS011;53955;52.442;13.284;2023-02-27T05:36:27;4.20;;;2.30;;
67049;SDS011;53955;52.442;13.284;2023-02-27T05:38:59;7.20;;;2.93;;
67049;SDS011;53955;52.442;13.284;2023-02-27T05:41:30;5.10;;;2.70;;
67049;SDS011;53955;52.442;13.284;2023-02-27T05:44:00;6.83;;;2.77;;
67049;SDS011;53955;52.442;13.284;2023-02-27T05:46:34;5.53;;;2.23;;
67049;SDS011;53955;52.442;13.284;2023-02-27T05:49:04;3.53;;;2.30;;
67049;SDS011;53955;52.442;13.284;2023-02-27T05:51:36;6.33;;;2.70;;
67049;SDS011;53955;52.442;13.284;2023-02-27T05:54:05;4.83;;;2.83;;
67049;SDS011;53955;52.442;13.284;2023-02-27T05:56:35;5.67;;;2.47;;
67049;SDS011;53955;52.442;13.284;2023-02-27T05:59:05;5.50;;;2.40;;
67049;SDS011;53955;52.442;13.284;2023-02-27T06:01:38;4.27;;;2.53;;
67049;SDS011;53955;52.442;13.284;2023-02-27T06:04:05;4.67;;;2.17;;
67049;SDS011;53955;52.442;13.284;2023-02-27T06:06:31;4.90;;;2.77;;
67049;SDS011;53955;52.442;13.284;2023-02-27T06:09:00;4.50;;;2.40;;
67049;SDS011;53955;52.442;13.284;2023-02-27T06:11:27;4.33;;;3.03;;
67049;SDS011;53955;52.442;13.284;2023-02-27T06:13:54;4.13;;;2.60;;
67049;SDS011;53955;52.442;13.284;2023-02-27T06:16:20;4.10;;;2.50;;
67049;SDS011;53955;52.442;13.284;2023-02-27T06:18:48;4.30;;;2.67;;
67049;SDS011;53955;52.442;13.284;2023-02-27T06:21:15;3.20;;;1.87;;
67049;SDS011;53955;52.442;13.284;2023-02-27T06:23:41;4.00;;;2.37;;
67049;SDS011;53955;52.442;13.284;2023-02-27T06:26:08;3.30;;;2.23;;
67049;SDS011;53955;52.442;13.284;2023-02-27T06:28:38;6.73;;;2.57;;
67049;SDS011;53955;52.442;13.284;2023-02-27T06:31:05;4.57;;;2.63;;
67049;SDS011;53955;52.442;13.284;2023-02-27T06:33:31;5.90;;;2.50;;
67049;SDS011;53955;52.442;13.284;2023-02-27T06:36:00;4.80;;;2.50;;
67049;SDS011;53955;52.442;13.284;2023-02-27T06:38:27;4.93;;;2.50;;
67049;SDS011;53955;52.442;13.284;2023-02-27T06:40:53;3.90;;;2.10;;
67049;SDS011;53955;52.442;13.284;2023-02-27T06:43:20;5.03;;;2.70;;
67049;SDS011;53955;52.442;13.284;2023-02-27T06:45:47;4.83;;;2.53;;
67049;SDS011;53955;52.442;13.284;2023-02-27T06:48:14;3.50;;;2.27;;
67049;SDS011;53955;52.442;13.284;2023-02-27T06:50:40;4.50;;;2.40;;
67049;SDS011;53955;52.442;13.284;2023-02-27T06:53:08;4.60;;;2.13;;
67049;SDS011;53955;52.442;13.284;2023-02-27T06:55:35;4.67;;;2.27;;
67049;SDS011;53955;52.442;13.284;2023-02-27T06:58:02;5.77;;;2.57;;
67049;SDS011;53955;52.442;13.284;2023-02-27T07:00:29;4.40;;;2.07;;
67049;SDS011;53955;52.442;13.284;2023-02-27T07:02:55;4.77;;;2.10;;
67049;SDS011;53955;52.442;13.284;2023-02-27T07:05:22;5.60;;;2.40;;
67049;SDS011;53955;52.442;13.284;2023-02-27T07:07:48;4.13;;;2.30;;
67049;SDS011;53955;52.442;13.284;2023-02-27T07:10:16;7.30;;;2.17;;
67049;SDS011;53955;52.442;13.284;2023-02-27T07:12:43;5.20;;;2.47;;
67049;SDS011;53955;52.442;13.284;2023-02-27T07:15:10;5.67;;;2.43;;
67049;SDS011;53955;52.442;13.284;2023-02-27T07:17:36;3.20;;;2.30;;
67049;SDS011;53955;52.442;13.284;2023-02-27T07:20:03;4.07;;;2.10;;
67049;SDS011;53955;52.442;13.284;2023-02-27T07:22:31;6.63;;;2.73;;
67049;SDS011;53955;52.442;13.284;2023-02-27T07:24:58;5.53;;;2.53;;
67049;SDS011;53955;52.442;13.284;2023-02-27T07:27:26;5.53;;;2.60;;
67049;SDS011;53955;52.442;13.284;2023-02-27T07:29:52;5.97;;;3.27;;
67049;SDS011;53955;52.442;13.284;2023-02-27T07:32:19;4.77;;;2.70;;
67049;SDS011;53955;52.442;13.284;2023-02-27T07:34:46;4.10;;;2.77;;
67049;SDS011;53955;52.442;13.284;2023-02-27T07:37:13;6.63;;;3.10;;
67049;SDS011;53955;52.442;13.284;2023-02-27T07:39:39;5.40;;;3.37;;
67049;SDS011;53955;52.442;13.284;2023-02-27T07:42:06;4.63;;;2.70;;
67049;SDS011;53955;52.442;13.284;2023-02-27T07:44:34;3.63;;;2.23;;
67049;SDS011;53955;52.442;13.284;2023-02-27T07:47:01;5.20;;;3.00;;
67049;SDS011;53955;52.442;13.284;2023-02-27T07:49:27;6.97;;;3.20;;
67049;SDS011;53955;52.442;13.284;2023-02-27T07:51:54;6.73;;;3.03;;
67049;SDS011;53955;52.442;13.284;2023-02-27T07:54:21;7.10;;;3.20;;
67049;SDS011;53955;52.442;13.284;2023-02-27T07:56:47;5.93;;;3.03;;
67049;SDS011;53955;52.442;13.284;2023-02-27T07:59:14;4.93;;;2.70;;
67049;SDS011;53955;52.442;13.284;2023-02-27T08:01:42;6.03;;;3.20;;
67049;SDS011;53955;52.442;13.284;2023-02-27T08:04:08;5.40;;;2.83;;
67049;SDS011;53955;52.442;13.284;2023-02-27T08:06:35;9.77;;;2.80;;
67049;SDS011;53955;52.442;13.284;2023-02-27T08:09:01;6.13;;;3.07;;
67049;SDS011;53955;52.442;13.284;2023-02-27T08:11:28;5.40;;;3.40;;
67049;SDS011;53955;52.442;13.284;2023-02-27T08:13:55;7.93;;;3.50;;
67049;SDS011;53955;52.442;13.284;2023-02-27T08:16:21;6.43;;;4.00;;
67049;SDS011;53955;52.442;13.284;2023-02-27T08:18:49;6.37;;;3.37;;
67049;SDS011;53955;52.442;13.284;2023-02-27T08:21:16;6.87;;;3.47;;
67049;SDS011;53955;52.442;13.284;2023-02-27T08:23:42;6.47;;;3.43;;
67049;SDS011;53955;52.442;13.284;2023-02-27T08:26:09;6.70;;;3.00;;
67049;SDS011;53955;52.442;13.284;2023-02-27T08:28:36;5.87;;;3.37;;
67049;SDS011;53955;52.442;13.284;2023-02-27T08:31:03;6.17;;;3.30;;
67049;SDS011;53955;52.442;13.284;2023-02-27T08:33:30;7.00;;;3.53;;
67049;SDS011;53955;52.442;13.284;2023-02-27T08:35:59;5.50;;;3.43;;
67049;SDS011;53955;52.442;13.284;2023-02-27T08:38:26;9.00;;;3.93;;
67049;SDS011;53955;52.442;13.284;2023-02-27T08:40:53;9.60;;;4.20;;
67049;SDS011;53955;52.442;13.284;2023-02-27T08:43:20;7.33;;;4.37;;
67049;SDS011;53955;52.442;13.284;2023-02-27T08:45:47;6.13;;;3.93;;
67049;SDS011;53955;52.442;13.284;2023-02-27T08:48:15;6.73;;;3.83;;
67049;SDS011;53955;52.442;13.284;2023-02-27T08:50:42;6.60;;;4.00;;
67049;SDS011;53955;52.442;13.284;2023-02-27T08:53:11;11.43;;;4.47;;
67049;SDS011;53955;52.442;13.284;2023-02-27T08:55:38;6.60;;;3.80;;
67049;SDS011;53955;52.442;13.284;2023-02-27T08:58:05;8.10;;;4.03;;
67049;SDS011;53955;52.442;13.284;2023-02-27T09:00:31;13.17;;;4.70;;
67049;SDS011;53955;52.442;13.284;2023-02-27T09:02:58;8.13;;;4.50;;
67049;SDS011;53955;52.442;13.284;2023-02-27T09:05:25;12.67;;;4.10;;
67049;SDS011;53955;52.442;13.284;2023-02-27T09:07:52;10.57;;;4.00;;
67049;SDS011;53955;52.442;13.284;2023-02-27T09:10:19;8.70;;;4.63;;
67049;SDS011;53955;52.442;13.284;2023-02-27T09:12:46;10.27;;;4.33;;
67049;SDS011;53955;52.442;13.284;2023-02-27T09:15:13;8.03;;;4.83;;
67049;SDS011;53955;52.442;13.284;2023-02-27T09:17:40;8.73;;;5.10;;
67049;SDS011;53955;52.442;13.284;2023-02-27T09:20:07;8.43;;;4.53;;
67049;SDS011;53955;52.442;13.284;2023-02-27T09:22:35;10.17;;;4.43;;
67049;SDS011;53955;52.442;13.284;2023-02-27T09:25:02;9.60;;;4.03;;
67049;SDS011;53955;52.442;13.284;2023-02-27T09:27:31;6.47;;;4.03;;
67049;SDS011;53955;52.442;13.284;2023-02-27T09:29:57;7.87;;;4.50;;
67049;SDS011;53955;52.442;13.284;2023-02-27T09:32:26;8.97;;;3.90;;
67049;SDS011;53955;52.442;13.284;2023-02-27T09:34:53;7.17;;;4.27;;
67049;SDS011;53955;52.442;13.284;2023-02-27T09:37:20;7.53;;;3.83;;
67049;SDS011;53955;52.442;13.284;2023-02-27T09:39:48;11.77;;;4.77;;
67049;SDS011;53955;52.442;13.284;2023-02-27T09:42:16;6.70;;;4.33;;
67049;SDS011;53955;52.442;13.284;2023-02-27T09:44:47;9.03;;;4.30;;
67049;SDS011;53955;52.442;13.284;2023-02-27T09:47:17;7.73;;;3.93;;
67049;SDS011;53955;52.442;13.284;2023-02-27T09:52:34;9.10;;;4.63;;
67049;SDS011;53955;52.442;13.284;2023-02-27T09:55:02;6.83;;;4.10;;
67049;SDS011;53955;52.442;13.284;2023-02-27T09:57:36;12.27;;;3.83;;
67049;SDS011;53955;52.442;13.284;2023-02-27T10:00:13;7.40;;;3.73;;
67049;SDS011;53955;52.442;13.284;2023-02-27T10:02:55;6.73;;;3.30;;
67049;SDS011;53955;52.442;13.284;2023-02-27T10:05:30;10.07;;;4.57;;
67049;SDS011;53955;52.442;13.284;2023-02-27T10:08:06;7.20;;;3.80;;
67049;SDS011;53955;52.442;13.284;2023-02-27T10:10:39;8.80;;;4.27;;
67049;SDS011;53955;52.442;13.284;2023-02-27T10:13:28;5.57;;;3.50;;
67049;SDS011;53955;52.442;13.284;2023-02-27T10:16:05;5.90;;;4.13;;
67049;SDS011;53955;52.442;13.284;2023-02-27T10:18:42;6.73;;;3.97;;
67049;SDS011;53955;52.442;13.284;2023-02-27T10:21:17;6.03;;;3.67;;
67049;SDS011;53955;52.442;13.284;2023-02-27T10:23:48;6.77;;;3.70;;
67049;SDS011;53955;52.442;13.284;2023-02-27T10:26:20;8.17;;;3.57;;
67049;SDS011;53955;52.442;13.284;2023-02-27T10:28:47;6.50;;;3.60;;
67049;SDS011;53955;52.442;13.284;2023-02-27T10:31:16;5.40;;;3.23;;
67049;SDS011;53955;52.442;13.284;2023-02-27T10:33:45;4.90;;;2.73;;
67049;SDS011;53955;52.442;13.284;2023-02-27T10:36:12;5.70;;;3.00;;
67049;SDS011;53955;52.442;13.284;2023-02-27T10:38:40;5.47;;;3.20;;
67049;SDS011;53955;52.442;13.284;2023-02-27T10:41:10;6.30;;;3.17;;
67049;SDS011;53955;52.442;13.284;2023-02-27T10:46:05;3.23;;;2.07;;
67049;SDS011;53955;52.442;13.284;2023-02-27T10:48:38;3.80;;;2.33;;
67049;SDS011;53955;52.442;13.284;2023-02-27T10:51:19;4.23;;;2.17;;
67049;SDS011;53955;52.442;13.284;2023-02-27T10:53:48;3.87;;;2.33;;
67049;SDS011;53955;52.442;13.284;2023-02-27T10:56:17;3.37;;;1.93;;
67049;SDS011;53955;52.442;13.284;2023-02-27T10:58:59;3.23;;;1.93;;
67049;SDS011;53955;52.442;13.284;2023-02-27T11:01:39;5.00;;;2.03;;
67049;SDS011;53955;52.442;13.284;2023-02-27T11:04:08;4.73;;;2.10;;
67049;SDS011;53955;52.442;13.284;2023-02-27T11:06:36;5.23;;;2.13;;
67049;SDS011;53955;52.442;13.284;2023-02-27T11:09:11;3.53;;;1.90;;
67049;SDS011;53955;52.442;13.284;2023-02-27T11:11:43;4.00;;;2.03;;
67049;SDS011;53955;52.442;13.284;2023-02-27T11:14:23;2.80;;;1.73;;
67049;SDS011;53955;52.442;13.284;2023-02-27T11:16:53;5.50;;;2.07;;
67049;SDS011;53955;52.442;13.284;2023-02-27T11:19:28;3.53;;;1.80;;
67049;SDS011;53955;52.442;13.284;2023-02-27T11:22:03;5.87;;;1.90;;
67049;SDS011;53955;52.442;13.284;2023-02-27T11:26:59;5.73;;;1.60;;
67049;SDS011;53955;52.442;13.284;2023-02-27T11:29:30;2.90;;;1.30;;
67049;SDS011;53955;52.442;13.284;2023-02-27T11:31:59;2.65;;;1.50;;
67049;SDS011;53955;52.442;13.284;2023-02-27T11:34:30;3.10;;;1.57;;
67049;SDS011;53955;52.442;13.284;2023-02-27T11:37:00;3.03;;;1.47;;
67049;SDS011;53955;52.442;13.284;2023-02-27T11:39:32;3.17;;;1.60;;
67049;SDS011;53955;52.442;13.284;2023-02-27T11:42:05;2.93;;;1.60;;
67049;SDS011;53955;52.442;13.284;2023-02-27T11:44:48;2.80;;;1.97;;
67049;SDS011;53955;52.442;13.284;2023-02-27T11:47:20;5.10;;;1.90;;
67049;SDS011;53955;52.442;13.284;2023-02-27T11:52:43;2.80;;;1.57;;
67049;SDS011;53955;52.442;13.284;2023-02-27T11:55:15;2.67;;;1.60;;
67049;SDS011;53955;52.442;13.284;2023-02-27T11:57:46;3.57;;;1.60;;
67049;SDS011;53955;52.442;13.284;2023-02-27T12:00:20;2.40;;;1.47;;
67049;SDS011;53955;52.442;13.284;2023-02-27T12:02:52;2.13;;;1.33;;
67049;SDS011;53955;52.442;13.284;2023-02-27T12:05:24;2.73;;;1.50;;
67049;SDS011;53955;52.442;13.284;2023-02-27T12:07:56;2.37;;;1.20;;
67049;SDS011;53955;52.442;13.284;2023-02-27T12:10:26;3.67;;;1.40;;
67049;SDS011;53955;52.442;13.284;2023-02-27T12:12:56;2.67;;;1.70;;
67049;SDS011;53955;52.442;13.284;2023-02-27T12:15:28;2.27;;;1.40;;
67049;SDS011;53955;52.442;13.284;2023-02-27T12:18:02;2.10;;;1.40;;
67049;SDS011;53955;52.442;13.284;2023-02-27T12:20:37;4.90;;;1.53;;
67049;SDS011;53955;52.442;13.284;2023-02-27T12:23:14;2.57;;;1.30;;
67049;SDS011;53955;52.442;13.284;2023-02-27T12:25:46;4.77;;;1.37;;
67049;SDS011;53955;52.442;13.284;2023-02-27T12:28:18;4.80;;;1.60;;
67049;SDS011;53955;52.442;13.284;2023-02-27T12:30:53;1.67;;;1.47;;
67049;SDS011;53955;52.442;13.284;2023-02-27T12:33:32;2.77;;;1.50;;
67049;SDS011;53955;52.442;13.284;2023-02-27T12:36:07;2.70;;;1.30;;
67049;SDS011;53955;52.442;13.284;2023-02-27T12:38:37;1.30;;;1.20;;
67049;SDS011;53955;52.442;13.284;2023-02-27T12:41:13;1.80;;;1.27;;
67049;SDS011;53955;52.442;13.284;2023-02-27T12:43:59;2.37;;;1.33;;
67049;SDS011;53955;52.442;13.284;2023-02-27T12:46:41;2.37;;;1.30;;
67049;SDS011;53955;52.442;13.284;2023-02-27T12:49:15;1.40;;;1.20;;
67049;SDS011;53955;52.442;13.284;2023-02-27T12:51:52;2.50;;;1.30;;
67049;SDS011;53955;52.442;13.284;2023-02-27T12:54:32;2.20;;;1.57;;
67049;SDS011;53955;52.442;13.284;2023-02-27T12:57:09;3.03;;;1.60;;
67049;SDS011;53955;52.442;13.284;2023-02-27T12:59:51;3.30;;;1.50;;
67049;SDS011;53955;52.442;13.284;2023-02-27T13:02:27;2.00;;;1.23;;
67049;SDS011;53955;52.442;13.284;2023-02-27T13:05:06;2.90;;;1.30;;
67049;SDS011;53955;52.442;13.284;2023-02-27T13:07:42;3.00;;;1.60;;
67049;SDS011;53955;52.442;13.284;2023-02-27T13:10:20;2.77;;;1.13;;
67049;SDS011;53955;52.442;13.284;2023-02-27T13:12:54;4.07;;;1.30;;
67049;SDS011;53955;52.442;13.284;2023-02-27T13:15:26;2.50;;;1.40;;
67049;SDS011;53955;52.442;13.284;2023-02-27T13:17:56;1.93;;;1.20;;
67049;SDS011;53955;52.442;13.284;2023-02-27T13:20:29;2.57;;;1.30;;
67049;SDS011;53955;52.442;13.284;2023-02-27T13:23:01;6.13;;;1.30;;
67049;SDS011;53955;52.442;13.284;2023-02-27T13:25:35;2.47;;;1.33;;
67049;SDS011;53955;52.442;13.284;2023-02-27T13:28:05;2.23;;;1.13;;
67049;SDS011;53955;52.442;13.284;2023-02-27T13:30:37;1.60;;;1.00;;
67049;SDS011;53955;52.442;13.284;2023-02-27T13:33:11;3.60;;;1.23;;
67049;SDS011;53955;52.442;13.284;2023-02-27T13:35:47;5.03;;;1.10;;
67049;SDS011;53955;52.442;13.284;2023-02-27T13:38:29;1.47;;;1.00;;
67049;SDS011;53955;52.442;13.284;2023-02-27T13:50:04;2.80;;;1.43;;
67049;SDS011;53955;52.442;13.284;2023-02-27T13:53:08;5.87;;;1.40;;
67049;SDS011;53955;52.442;13.284;2023-02-27T13:55:35;2.20;;;1.30;;
67049;SDS011;53955;52.442;13.284;2023-02-27T13:58:05;2.30;;;1.37;;
67049;SDS011;53955;52.442;13.284;2023-02-27T14:00:52;4.83;;;1.37;;
67049;SDS011;53955;52.442;13.284;2023-02-27T14:03:25;1.60;;;1.13;;
67049;SDS011;53955;52.442;13.284;2023-02-27T14:05:55;5.07;;;1.50;;
67049;SDS011;53955;52.442;13.284;2023-02-27T14:08:26;3.43;;;1.47;;
67049;SDS011;53955;52.442;13.284;2023-02-27T14:10:59;3.30;;;1.10;;
67049;SDS011;53955;52.442;13.284;2023-02-27T14:19:25;2.63;;;1.37;;
67049;SDS011;53955;52.442;13.284;2023-02-27T14:25:12;3.43;;;1.50;;
67049;SDS011;53955;52.442;13.284;2023-02-27T14:27:50;1.67;;;1.00;;
67049;SDS011;53955;52.442;13.284;2023-02-27T14:30:25;1.60;;;1.37;;
67049;SDS011;53955;52.442;13.284;2023-02-27T14:32:56;2.40;;;1.23;;
67049;SDS011;53955;52.442;13.284;2023-02-27T14:35:26;1.97;;;1.20;;
67049;SDS011;53955;52.442;13.284;2023-02-27T14:37:53;2.37;;;1.30;;
67049;SDS011;53955;52.442;13.284;2023-02-27T14:40:21;1.20;;;1.10;;
67049;SDS011;53955;52.442;13.284;2023-02-27T14:42:53;2.20;;;1.20;;
67049;SDS011;53955;52.442;13.284;2023-02-27T14:45:28;1.87;;;1.03;;
67049;SDS011;53955;52.442;13.284;2023-02-27T14:47:55;1.20;;;1.10;;
67049;SDS011;53955;52.442;13.284;2023-02-27T14:50:24;2.00;;;1.47;;
67049;SDS011;53955;52.442;13.284;2023-02-27T14:52:56;1.00;;;0.80;;
67049;SDS011;53955;52.442;13.284;2023-02-27T14:55:24;1.30;;;1.00;;
67049;SDS011;53955;52.442;13.284;2023-02-27T14:57:55;2.20;;;1.27;;
67049;SDS011;53955;52.442;13.284;2023-02-27T15:03:17;3.77;;;1.43;;
67049;SDS011;53955;52.442;13.284;2023-02-27T15:05:46;2.43;;;1.40;;
67049;SDS011;53955;52.442;13.284;2023-02-27T15:08:14;3.57;;;1.30;;
67049;SDS011;53955;52.442;13.284;2023-02-27T15:10:43;3.07;;;1.20;;
67049;SDS011;53955;52.442;13.284;2023-02-27T15:13:18;6.73;;;1.10;;
67049;SDS011;53955;52.442;13.284;2023-02-27T15:15:49;2.40;;;1.30;;
67049;SDS011;53955;52.442;13.284;2023-02-27T15:18:20;2.20;;;1.47;;
67049;SDS011;53955;52.442;13.284;2023-02-27T15:20:55;3.57;;;1.47;;
67049;SDS011;53955;52.442;13.284;2023-02-27T15:23:23;2.97;;;1.60;;
67049;SDS011;53955;52.442;13.284;2023-02-27T15:25:53;2.43;;;1.37;;
67049;SDS011;53955;52.442;13.284;2023-02-27T15:28:21;2.57;;;1.30;;
67049;SDS011;53955;52.442;13.284;2023-02-27T15:30:52;2.57;;;1.30;;
67049;SDS011;53955;52.442;13.284;2023-02-27T15:33:22;2.77;;;1.53;;
67049;SDS011;53955;52.442;13.284;2023-02-27T15:35:53;2.53;;;1.30;;
67049;SDS011;53955;52.442;13.284;2023-02-27T15:38:24;2.90;;;1.40;;
67049;SDS011;53955;52.442;13.284;2023-02-27T15:40:52;1.50;;;1.17;;
67049;SDS011;53955;52.442;13.284;2023-02-27T15:43:19;2.87;;;1.40;;
67049;SDS011;53955;52.442;13.284;2023-02-27T15:45:47;1.50;;;1.27;;
67049;SDS011;53955;52.442;13.284;2023-02-27T15:48:16;2.20;;;1.47;;
67049;SDS011;53955;52.442;13.284;2023-02-27T15:50:44;2.37;;;1.50;;
67049;SDS011;53955;52.442;13.284;2023-02-27T15:53:13;2.50;;;1.47;;
67049;SDS011;53955;52.442;13.284;2023-02-27T15:55:44;9.67;;;3.87;;
67049;SDS011;53955;52.442;13.284;2023-02-27T15:58:17;7.13;;;2.63;;
67049;SDS011;53955;52.442;13.284;2023-02-27T16:00:48;3.10;;;1.40;;
67049;SDS011;53955;52.442;13.284;2023-02-27T16:03:26;3.87;;;1.50;;
67049;SDS011;53955;52.442;13.284;2023-02-27T16:05:57;2.30;;;1.57;;
67049;SDS011;53955;52.442;13.284;2023-02-27T16:08:25;3.10;;;1.20;;
67049;SDS011;53955;52.442;13.284;2023-02-27T16:10:55;2.43;;;1.60;;
67049;SDS011;53955;52.442;13.284;2023-02-27T16:13:27;1.87;;;1.53;;
67049;SDS011;53955;52.442;13.284;2023-02-27T16:15:59;3.90;;;1.37;;
67049;SDS011;53955;52.442;13.284;2023-02-27T16:18:29;2.63;;;1.60;;
67049;SDS011;53955;52.442;13.284;2023-02-27T16:21:06;2.23;;;1.50;;
67049;SDS011;53955;52.442;13.284;2023-02-27T16:23:35;2.00;;;1.50;;
67049;SDS011;53955;52.442;13.284;2023-02-27T16:26:03;3.83;;;1.20;;
67049;SDS011;53955;52.442;13.284;2023-02-27T16:28:49;2.47;;;1.37;;
67049;SDS011;53955;52.442;13.284;2023-02-27T16:31:21;1.63;;;1.37;;
67049;SDS011;53955;52.442;13.284;2023-02-27T16:33:53;1.77;;;1.50;;
67049;SDS011;53955;52.442;13.284;2023-02-27T16:36:22;2.07;;;1.20;;
67049;SDS011;53955;52.442;13.284;2023-02-27T16:38:49;3.33;;;1.90;;
67049;SDS011;53955;52.442;13.284;2023-02-27T16:41:17;2.30;;;1.50;;
67049;SDS011;53955;52.442;13.284;2023-02-27T16:43:46;3.10;;;1.57;;
67049;SDS011;53955;52.442;13.284;2023-02-27T16:46:14;3.70;;;1.70;;
67049;SDS011;53955;52.442;13.284;2023-02-27T16:48:44;2.67;;;1.70;;
67049;SDS011;53955;52.442;13.284;2023-02-27T16:51:15;2.20;;;1.60;;
67049;SDS011;53955;52.442;13.284;2023-02-27T16:53:44;2.30;;;1.50;;
67049;SDS011;53955;52.442;13.284;2023-02-27T17:01:05;3.55;;;1.90;;
67049;SDS011;53955;52.442;13.284;2023-02-27T17:03:31;7.97;;;1.90;;
67049;SDS011;53955;52.442;13.284;2023-02-27T17:05:58;3.73;;;1.53;;
67049;SDS011;53955;52.442;13.284;2023-02-27T17:13:22;2.40;;;1.70;;
67049;SDS011;53955;52.442;13.284;2023-02-27T17:15:48;2.63;;;1.77;;
67049;SDS011;53955;52.442;13.284;2023-02-27T17:18:15;5.67;;;2.23;;
67049;SDS011;53955;52.442;13.284;2023-02-27T17:20:42;2.70;;;1.80;;
67049;SDS011;53955;52.442;13.284;2023-02-27T17:23:08;3.10;;;2.07;;
67049;SDS011;53955;52.442;13.284;2023-02-27T17:28:04;3.65;;;2.15;;
67049;SDS011;53955;52.442;13.284;2023-02-27T17:30:31;4.63;;;1.93;;
67049;SDS011;53955;52.442;13.284;2023-02-27T17:32:57;5.33;;;2.60;;
67049;SDS011;53955;52.442;13.284;2023-02-27T17:35:24;4.67;;;1.97;;
67049;SDS011;53955;52.442;13.284;2023-02-27T17:37:54;4.77;;;2.50;;
67049;SDS011;53955;52.442;13.284;2023-02-27T17:40:20;5.70;;;2.10;;
67049;SDS011;53955;52.442;13.284;2023-02-27T17:45:15;4.00;;;2.17;;
67049;SDS011;53955;52.442;13.284;2023-02-27T17:47:45;2.80;;;2.03;;
67049;SDS011;53955;52.442;13.284;2023-02-27T17:50:12;3.67;;;2.10;;
67049;SDS011;53955;52.442;13.284;2023-02-27T17:52:38;5.23;;;1.97;;
67049;SDS011;53955;52.442;13.284;2023-02-27T17:55:06;3.33;;;2.10;;
67049;SDS011;53955;52.442;13.284;2023-02-27T18:00:01;3.10;;;2.37;;
67049;SDS011;53955;52.442;13.284;2023-02-27T18:02:28;5.33;;;2.10;;
67049;SDS011;53955;52.442;13.284;2023-02-27T18:04:55;6.63;;;2.30;;
67049;SDS011;53955;52.442;13.284;2023-02-27T18:07:22;4.00;;;2.50;;
67049;SDS011;53955;52.442;13.284;2023-02-27T18:09:49;4.37;;;2.70;;
67049;SDS011;53955;52.442;13.284;2023-02-27T18:12:15;4.33;;;2.43;;
67049;SDS011;53955;52.442;13.284;2023-02-27T18:14:42;3.83;;;2.47;;
67049;SDS011;53955;52.442;13.284;2023-02-27T18:17:10;6.43;;;2.30;;
67049;SDS011;53955;52.442;13.284;2023-02-27T18:19:37;3.73;;;2.20;;
67049;SDS011;53955;52.442;13.284;2023-02-27T18:22:05;5.87;;;2.63;;
67049;SDS011;53955;52.442;13.284;2023-02-27T18:31:55;7.07;;;4.03;;
67049;SDS011;53955;52.442;13.284;2023-02-27T18:34:23;10.00;;;5.00;;
67049;SDS011;53955;52.442;13.284;2023-02-27T18:36:50;13.90;;;5.40;;
67049;SDS011;53955;52.442;13.284;2023-02-27T18:39:17;8.33;;;5.03;;
67049;SDS011;53955;52.442;13.284;2023-02-27T18:41:43;10.00;;;5.43;;
67049;SDS011;53955;52.442;13.284;2023-02-27T18:44:11;8.10;;;3.97;;
67049;SDS011;53955;52.442;13.284;2023-02-27T18:46:38;7.57;;;3.53;;
67049;SDS011;53955;52.442;13.284;2023-02-27T18:49:04;6.97;;;3.50;;
67049;SDS011;53955;52.442;13.284;2023-02-27T18:51:33;5.63;;;3.20;;
67049;SDS011;53955;52.442;13.284;2023-02-27T19:01:30;6.00;;;3.60;;
67049;SDS011;53955;52.442;13.284;2023-02-27T19:03:58;5.50;;;3.53;;
67049;SDS011;53955;52.442;13.284;2023-02-27T19:08:55;4.60;;;3.40;;
67049;SDS011;53955;52.442;13.284;2023-02-27T19:11:22;5.20;;;3.30;;
67049;SDS011;53955;52.442;13.284;2023-02-27T19:13:50;6.47;;;4.00;;
67049;SDS011;53955;52.442;13.284;2023-02-27T19:16:17;9.83;;;4.20;;
67049;SDS011;53955;52.442;13.284;2023-02-27T19:18:44;7.97;;;4.13;;
67049;SDS011;53955;52.442;13.284;2023-02-27T19:21:10;6.83;;;3.60;;
67049;SDS011;53955;52.442;13.284;2023-02-27T19:23:37;5.00;;;3.30;;
67049;SDS011;53955;52.442;13.284;2023-02-27T19:26:05;5.80;;;2.80;;
67049;SDS011;53955;52.442;13.284;2023-02-27T19:28:32;6.03;;;3.00;;
67049;SDS011;53955;52.442;13.284;2023-02-27T19:30:58;5.67;;;3.43;;
67049;SDS011;53955;52.442;13.284;2023-02-27T19:33:30;6.73;;;3.33;;
67049;SDS011;53955;52.442;13.284;2023-02-27T19:35:56;6.27;;;3.37;;
67049;SDS011;53955;52.442;13.284;2023-02-27T19:38:23;9.83;;;3.67;;
67049;SDS011;53955;52.442;13.284;2023-02-27T19:40:50;7.97;;;3.70;;